createdAt,value
2017-09-27T00:02:12.972Z,12.70
2017-09-27T00:04:40.525Z,11.67
2017-09-27T00:07:08.053Z,11.67
2017-09-27T00:09:36.326Z,12.97
2017-09-27T00:12:03.861Z,12.77
2017-09-27T00:14:40.137Z,12.33
2017-09-27T00:17:10.327Z,11.97
2017-09-27T00:19:38.788Z,13.07
2017-09-27T00:22:06.281Z,13.47
2017-09-27T00:24:33.828Z,11.67
2017-09-27T00:27:01.330Z,11.93
2017-09-27T00:29:28.829Z,11.13
2017-09-27T00:31:56.373Z,12.23
2017-09-27T00:34:23.885Z,12.33
2017-09-27T00:36:51.384Z,12.80
2017-09-27T00:39:18.923Z,11.97
2017-09-27T00:41:47.201Z,11.70
2017-09-27T00:44:14.727Z,11.43
2017-09-27T00:46:43.035Z,13.37
2017-09-27T00:49:10.540Z,12.57
2017-09-27T00:51:38.045Z,13.47
2017-09-27T00:54:05.598Z,12.67
2017-09-27T00:56:33.761Z,11.60
2017-09-27T00:59:01.301Z,12.07
2017-09-27T01:01:28.869Z,10.50
2017-09-27T01:03:56.430Z,11.00
2017-09-27T01:06:23.946Z,11.77
2017-09-27T01:08:52.258Z,12.27
2017-09-27T01:11:19.802Z,10.87
2017-09-27T01:13:47.306Z,12.03
2017-09-27T01:16:15.856Z,10.23
2017-09-27T01:18:43.411Z,11.73
2017-09-27T01:21:10.976Z,11.30
2017-09-27T01:23:38.528Z,11.50
2017-09-27T01:26:06.058Z,11.17
2017-09-27T01:28:33.585Z,10.63
2017-09-27T01:31:01.854Z,11.13
2017-09-27T01:33:29.368Z,11.37
2017-09-27T01:36:04.078Z,10.80
2017-09-27T01:38:31.642Z,11.30
2017-09-27T01:40:59.903Z,10.87
2017-09-27T01:43:28.182Z,11.03
2017-09-27T01:45:55.700Z,11.53
2017-09-27T01:48:24.011Z,10.10
2017-09-27T01:50:51.509Z,10.27
2017-09-27T01:53:19.772Z,11.30
2017-09-27T01:55:48.082Z,10.67
2017-09-27T01:58:15.589Z,11.40
2017-09-27T02:00:43.861Z,11.93
2017-09-27T02:03:11.384Z,11.37
2017-09-27T02:05:39.683Z,11.80
2017-09-27T02:08:07.187Z,11.87
2017-09-27T02:10:35.461Z,10.30
2017-09-27T02:13:03.006Z,10.43
2017-09-27T02:15:31.399Z,11.50
2017-09-27T02:17:58.939Z,9.93
2017-09-27T02:20:26.473Z,11.23
2017-09-27T02:22:54.006Z,11.90
2017-09-27T02:25:21.506Z,11.03
2017-09-27T02:27:49.037Z,10.67
2017-09-27T02:30:16.550Z,10.93
2017-09-27T02:32:44.053Z,10.30
2017-09-27T02:35:12.415Z,10.40
2017-09-27T02:37:40.690Z,11.17
2017-09-27T02:40:08.637Z,11.00
2017-09-27T02:42:36.949Z,10.10
2017-09-27T02:45:04.457Z,10.67
2017-09-27T02:47:31.966Z,13.30
2017-09-27T02:49:59.519Z,11.40
2017-09-27T02:52:27.828Z,11.37
2017-09-27T02:54:55.366Z,11.70
2017-09-27T02:57:22.868Z,11.20
2017-09-27T02:59:50.352Z,10.70
2017-09-27T03:02:17.882Z,12.53
2017-09-27T03:07:19.318Z,9.60
2017-09-27T03:09:46.814Z,8.70
2017-09-27T03:12:14.326Z,10.13
2017-09-27T03:14:41.849Z,10.50
2017-09-27T03:17:09.368Z,10.90
2017-09-27T03:19:36.896Z,9.33
2017-09-27T03:22:04.390Z,9.93
2017-09-27T03:24:31.920Z,11.07
2017-09-27T03:26:59.470Z,10.90
2017-09-27T03:29:26.982Z,10.87
2017-09-27T03:31:55.277Z,10.57
2017-09-27T03:34:22.807Z,11.60
2017-09-27T03:36:51.110Z,11.97
2017-09-27T03:39:18.627Z,11.77
2017-09-27T03:41:46.161Z,10.43
2017-09-27T03:44:13.662Z,9.70
2017-09-27T03:46:41.221Z,10.40
2017-09-27T03:49:08.773Z,9.93
2017-09-27T03:51:37.047Z,9.97
2017-09-27T03:54:05.354Z,10.33
2017-09-27T03:56:32.871Z,11.37
2017-09-27T03:59:00.373Z,12.00
2017-09-27T04:01:27.914Z,10.80
2017-09-27T04:03:55.413Z,11.17
2017-09-27T04:06:22.923Z,10.20
2017-09-27T04:08:50.441Z,9.63
2017-09-27T04:11:17.971Z,12.17
2017-09-27T04:13:45.479Z,10.40
2017-09-27T04:16:13.011Z,10.40
2017-09-27T04:18:40.549Z,10.83
2017-09-27T04:21:08.077Z,11.00
2017-09-27T04:23:36.334Z,9.67
2017-09-27T04:26:04.618Z,10.57
2017-09-27T04:28:32.161Z,11.00
2017-09-27T04:30:59.649Z,9.93
2017-09-27T04:33:27.150Z,10.57
2017-09-27T04:35:54.726Z,9.70
2017-09-27T04:38:22.226Z,10.33
2017-09-27T04:40:49.746Z,9.57
2017-09-27T04:43:17.277Z,9.93
2017-09-27T04:45:44.765Z,10.30
2017-09-27T04:48:12.259Z,9.03
2017-09-27T04:50:39.819Z,10.33
2017-09-27T04:53:08.111Z,10.17
2017-09-27T04:58:10.744Z,10.40
2017-09-27T05:01:09.676Z,10.00
2017-09-27T05:03:37.181Z,10.53
2017-09-27T05:06:05.461Z,10.37
2017-09-27T05:08:32.995Z,9.63
2017-09-27T05:11:01.259Z,10.80
2017-09-27T05:13:28.815Z,11.67
2017-09-27T05:15:56.311Z,11.80
2017-09-27T05:18:23.826Z,10.93
2017-09-27T05:20:51.426Z,9.50
2017-09-27T05:23:18.999Z,10.00
2017-09-27T05:25:46.523Z,11.27
2017-09-27T05:28:14.068Z,10.90
2017-09-27T05:30:41.612Z,10.20
2017-09-27T05:33:09.140Z,10.57
2017-09-27T05:35:37.425Z,9.50
2017-09-27T05:38:04.930Z,10.47
2017-09-27T05:40:32.477Z,11.00
2017-09-27T05:42:59.966Z,10.50
2017-09-27T05:45:27.461Z,11.47
2017-09-27T05:47:54.998Z,10.80
2017-09-27T05:50:22.513Z,10.93
2017-09-27T05:52:50.022Z,11.07
2017-09-27T05:55:17.554Z,10.40
2017-09-27T05:57:45.065Z,11.73
2017-09-27T06:00:12.594Z,11.53
2017-09-27T06:02:40.114Z,13.33
2017-09-27T06:05:07.641Z,11.83
2017-09-27T06:07:35.164Z,10.77
2017-09-27T06:10:02.670Z,15.10
2017-09-27T06:12:30.200Z,12.90
2017-09-27T06:14:59.814Z,12.30
2017-09-27T06:17:27.880Z,13.00
2017-09-27T06:19:55.373Z,13.80
2017-09-27T06:22:22.894Z,15.27
2017-09-27T06:24:50.432Z,12.50
2017-09-27T06:27:18.698Z,12.80
2017-09-27T06:29:46.248Z,14.33
2017-09-27T06:32:13.761Z,14.47
2017-09-27T06:34:41.272Z,13.87
2017-09-27T06:37:08.838Z,13.90
2017-09-27T06:39:36.386Z,13.13
2017-09-27T06:42:03.862Z,13.33
2017-09-27T06:44:32.175Z,14.50
2017-09-27T06:46:59.689Z,15.20
2017-09-27T06:49:27.209Z,14.10
2017-09-27T06:51:55.520Z,14.07
2017-09-27T06:54:23.026Z,12.27
2017-09-27T06:56:51.973Z,13.90
2017-09-27T06:59:20.341Z,13.60
2017-09-27T07:01:48.103Z,14.60
2017-09-27T07:04:15.850Z,13.47
2017-09-27T07:06:43.375Z,14.27
2017-09-27T07:09:11.679Z,13.07
2017-09-27T07:11:39.189Z,14.90
2017-09-27T07:14:07.481Z,14.43
2017-09-27T07:16:35.034Z,18.40
2017-09-27T07:19:02.580Z,13.60
2017-09-27T07:21:30.075Z,13.90
2017-09-27T07:23:57.621Z,17.40
2017-09-27T07:26:25.894Z,15.00
2017-09-27T07:28:54.164Z,14.80
2017-09-27T07:31:21.693Z,15.03
2017-09-27T07:33:49.960Z,14.60
2017-09-27T07:36:18.263Z,13.43
2017-09-27T07:38:45.777Z,14.60
2017-09-27T07:41:13.317Z,16.23
2017-09-27T07:43:40.876Z,17.10
2017-09-27T07:46:08.381Z,15.50
2017-09-27T07:48:36.665Z,15.73
2017-09-27T07:51:04.221Z,17.97
2017-09-27T07:53:31.732Z,14.47
2017-09-27T07:55:59.997Z,17.00
2017-09-27T07:58:28.298Z,16.90
2017-09-27T08:00:55.800Z,15.50
2017-09-27T08:03:24.061Z,16.67
2017-09-27T08:05:52.353Z,17.47
2017-09-27T08:08:19.894Z,17.10
2017-09-27T08:10:47.406Z,15.80
2017-09-27T08:13:15.680Z,16.53
2017-09-27T08:15:43.226Z,17.30
2017-09-27T08:18:10.732Z,17.20
2017-09-27T08:20:38.263Z,16.60
2017-09-27T08:23:05.797Z,16.37
2017-09-27T08:25:33.302Z,16.07
2017-09-27T08:28:00.851Z,15.13
2017-09-27T08:30:28.365Z,17.37
2017-09-27T08:32:55.879Z,17.60
2017-09-27T08:35:23.411Z,17.17
2017-09-27T08:37:50.915Z,17.50
2017-09-27T08:40:19.217Z,16.70
2017-09-27T08:42:46.717Z,17.37
2017-09-27T08:45:14.230Z,17.00
2017-09-27T08:47:41.781Z,15.63
2017-09-27T08:50:09.305Z,14.03
2017-09-27T08:52:36.816Z,16.43
2017-09-27T08:55:04.357Z,16.03
2017-09-27T08:57:31.858Z,15.77
2017-09-27T08:59:59.362Z,15.03
2017-09-27T09:02:26.902Z,17.03
2017-09-27T09:04:54.397Z,16.33
2017-09-27T09:07:22.669Z,15.57
2017-09-27T09:09:50.978Z,14.33
2017-09-27T09:12:18.514Z,14.30
2017-09-27T09:14:46.024Z,14.03
2017-09-27T09:17:13.522Z,14.07
2017-09-27T09:19:41.058Z,9.90
2017-09-27T09:22:08.561Z,9.00
2017-09-27T09:24:36.063Z,8.17
2017-09-27T09:27:03.609Z,9.10
2017-09-27T09:29:31.101Z,8.87
2017-09-27T09:31:58.590Z,7.93
2017-09-27T09:34:26.127Z,8.97
2017-09-27T09:36:53.625Z,8.80
2017-09-27T09:39:21.117Z,8.63
2017-09-27T09:41:48.640Z,7.20
2017-09-27T09:44:16.134Z,7.57
2017-09-27T09:46:44.397Z,7.33
2017-09-27T09:49:12.710Z,6.47
2017-09-27T09:51:40.201Z,7.37
2017-09-27T09:54:08.481Z,6.73
2017-09-27T09:56:35.997Z,7.80
2017-09-27T09:59:04.245Z,6.47
2017-09-27T10:01:31.761Z,6.67
2017-09-27T10:03:59.254Z,6.37
2017-09-27T10:06:26.777Z,5.47
2017-09-27T10:08:54.297Z,6.40
2017-09-27T10:11:21.786Z,5.93
2017-09-27T10:13:49.308Z,7.07
2017-09-27T10:16:16.845Z,5.93
2017-09-27T10:18:44.373Z,7.90
2017-09-27T10:21:11.889Z,7.67
2017-09-27T10:23:39.421Z,6.50
2017-09-27T10:26:06.921Z,7.20
2017-09-27T10:28:34.405Z,6.43
2017-09-27T10:31:01.935Z,6.70
2017-09-27T10:33:29.421Z,8.17
2017-09-27T10:35:57.677Z,8.43
2017-09-27T10:38:25.206Z,8.60
2017-09-27T10:40:52.697Z,8.93
2017-09-27T10:43:20.189Z,8.07
2017-09-27T10:45:47.721Z,7.60
2017-09-27T10:48:15.217Z,8.77
2017-09-27T10:50:42.712Z,8.50
2017-09-27T10:53:10.285Z,7.73
2017-09-27T10:55:37.781Z,8.00
2017-09-27T10:58:06.042Z,8.00
2017-09-27T11:00:34.399Z,7.63
2017-09-27T11:03:01.851Z,7.10
2017-09-27T11:05:29.350Z,8.10
2017-09-27T11:07:56.885Z,7.03
2017-09-27T11:10:24.373Z,6.93
2017-09-27T11:12:51.898Z,6.80
2017-09-27T11:15:19.398Z,6.93
2017-09-27T11:17:46.932Z,7.13
2017-09-27T11:20:14.426Z,7.50
2017-09-27T11:22:41.937Z,7.67
2017-09-27T11:25:09.474Z,7.80
2017-09-27T11:27:36.977Z,8.20
2017-09-27T11:30:05.230Z,7.50
2017-09-27T11:32:33.577Z,7.50
2017-09-27T11:35:01.090Z,8.30
2017-09-27T11:37:28.607Z,6.80
2017-09-27T11:39:56.105Z,8.10
2017-09-27T11:42:23.621Z,7.77
2017-09-27T11:44:51.121Z,8.43
2017-09-27T11:47:18.660Z,9.70
2017-09-27T11:49:46.917Z,8.30
2017-09-27T11:52:15.179Z,8.10
2017-09-27T11:54:42.723Z,9.00
2017-09-27T11:57:10.221Z,8.73
2017-09-27T11:59:38.590Z,7.90
2017-09-27T12:02:06.093Z,7.63
2017-09-27T12:04:33.592Z,8.50
2017-09-27T12:07:01.121Z,8.10
2017-09-27T12:09:28.618Z,8.60
2017-09-27T12:11:56.109Z,8.70
2017-09-27T12:14:23.637Z,7.57
2017-09-27T12:16:51.996Z,8.00
2017-09-27T12:19:19.490Z,7.23
2017-09-27T12:21:47.781Z,7.83
2017-09-27T12:24:15.273Z,8.50
2017-09-27T12:26:42.766Z,8.60
2017-09-27T12:29:10.302Z,8.63
2017-09-27T12:31:37.804Z,7.50
2017-09-27T12:34:05.293Z,5.80
2017-09-27T12:36:32.824Z,7.57
2017-09-27T12:39:00.369Z,6.10
2017-09-27T12:41:27.889Z,7.00
2017-09-27T12:43:56.167Z,6.47
2017-09-27T12:46:23.701Z,6.73
2017-09-27T12:48:52.004Z,6.67
2017-09-27T12:51:19.506Z,5.90
2017-09-27T12:53:47.769Z,6.60
2017-09-27T12:56:16.059Z,6.37
2017-09-27T12:58:43.557Z,5.80
2017-09-27T13:01:11.825Z,5.60
2017-09-27T13:03:40.123Z,6.20
2017-09-27T13:06:07.621Z,5.10
2017-09-27T13:08:35.142Z,6.27
2017-09-27T13:11:03.402Z,6.23
2017-09-27T13:13:30.920Z,5.30
2017-09-27T13:15:58.464Z,5.80
2017-09-27T13:18:25.962Z,6.10
2017-09-27T13:20:54.228Z,6.60
2017-09-27T13:23:21.761Z,6.07
2017-09-27T13:25:50.368Z,6.50
2017-09-27T13:28:18.923Z,6.50
2017-09-27T13:30:46.432Z,7.17
2017-09-27T13:33:14.770Z,6.47
2017-09-27T13:35:42.306Z,6.63
2017-09-27T13:38:09.800Z,6.30
2017-09-27T13:40:38.098Z,6.33
2017-09-27T13:43:05.593Z,5.50
2017-09-27T13:45:33.098Z,5.97
2017-09-27T13:48:00.609Z,5.70
2017-09-27T13:50:28.270Z,5.80
2017-09-27T13:52:55.853Z,5.83
2017-09-27T13:55:23.385Z,5.80
2017-09-27T13:57:50.945Z,5.80
2017-09-27T14:00:18.461Z,5.40
2017-09-27T14:02:45.988Z,6.30
2017-09-27T14:05:13.535Z,6.60
2017-09-27T14:07:41.061Z,6.43
2017-09-27T14:10:08.613Z,6.57
2017-09-27T14:12:36.126Z,5.77
2017-09-27T14:15:04.417Z,7.00
2017-09-27T14:17:31.953Z,5.73
2017-09-27T14:19:59.445Z,6.63
2017-09-27T14:22:26.940Z,5.83
2017-09-27T14:24:54.478Z,6.70
2017-09-27T14:27:21.979Z,5.60
2017-09-27T14:29:49.475Z,7.20
2017-09-27T14:32:17.004Z,6.73
2017-09-27T14:34:45.265Z,6.23
2017-09-27T14:37:13.562Z,6.30
2017-09-27T14:39:41.061Z,7.23
2017-09-27T14:42:09.360Z,7.17
2017-09-27T14:44:36.885Z,6.30
2017-09-27T14:47:04.397Z,6.00
2017-09-27T14:49:31.933Z,6.70
2017-09-27T14:51:59.425Z,7.20
2017-09-27T14:54:26.940Z,6.63
2017-09-27T14:56:55.221Z,5.63
2017-09-27T14:59:22.714Z,6.80
2017-09-27T15:01:50.242Z,6.50
2017-09-27T15:04:17.733Z,6.73
2017-09-27T15:06:46.009Z,6.90
2017-09-27T15:09:13.546Z,6.63
2017-09-27T15:11:41.065Z,7.50
2017-09-27T15:14:09.341Z,6.43
2017-09-27T15:16:37.645Z,5.70
2017-09-27T15:19:05.148Z,6.57
2017-09-27T15:21:32.683Z,7.40
2017-09-27T15:24:00.949Z,7.80
2017-09-27T15:26:29.226Z,7.27
2017-09-27T15:28:56.757Z,7.00
2017-09-27T15:31:25.030Z,8.27
2017-09-27T15:33:52.529Z,7.60
2017-09-27T15:36:20.072Z,7.53
2017-09-27T15:38:47.572Z,8.50
2017-09-27T15:41:15.125Z,8.03
2017-09-27T15:43:42.655Z,7.30
2017-09-27T15:46:10.169Z,7.70
2017-09-27T15:48:37.706Z,7.73
2017-09-27T15:51:05.210Z,7.27
2017-09-27T15:53:32.702Z,7.83
2017-09-27T15:56:01.007Z,7.10
2017-09-27T15:58:28.514Z,7.50
2017-09-27T16:00:56.819Z,7.10
2017-09-27T16:03:24.349Z,7.90
2017-09-27T16:05:51.843Z,8.60
2017-09-27T16:08:19.347Z,7.20
2017-09-27T16:10:46.882Z,6.87
2017-09-27T16:13:14.402Z,6.03
2017-09-27T16:15:41.965Z,7.67
2017-09-27T16:18:09.512Z,8.60
2017-09-27T16:20:37.043Z,6.83
2017-09-27T16:23:04.609Z,6.73
2017-09-27T16:25:32.116Z,7.80
2017-09-27T16:27:59.622Z,6.87
2017-09-27T16:30:27.150Z,7.17
2017-09-27T16:32:54.645Z,7.07
2017-09-27T16:35:22.141Z,8.10
2017-09-27T16:37:49.669Z,7.20
2017-09-27T16:40:17.162Z,7.27
2017-09-27T16:42:45.475Z,7.53
2017-09-27T16:45:12.981Z,8.70
2017-09-27T16:47:40.491Z,7.43
2017-09-27T16:50:08.039Z,7.87
2017-09-27T16:52:35.533Z,7.80
2017-09-27T16:55:03.080Z,7.07
2017-09-27T16:57:30.586Z,9.27
2017-09-27T16:59:58.846Z,8.40
2017-09-27T17:02:27.134Z,8.50
2017-09-27T17:04:54.634Z,6.70
2017-09-27T17:07:22.155Z,7.00
2017-09-27T17:09:49.651Z,8.17
2017-09-27T17:12:17.188Z,8.03
2017-09-27T17:14:45.470Z,9.03
2017-09-27T17:17:12.969Z,7.83
2017-09-27T17:19:40.502Z,8.33
2017-09-27T17:22:08.041Z,9.30
2017-09-27T17:24:35.578Z,8.33
2017-09-27T17:27:03.078Z,8.80
2017-09-27T17:29:30.578Z,9.90
2017-09-27T17:31:58.113Z,9.50
2017-09-27T17:34:25.633Z,10.73
2017-09-27T17:36:53.130Z,9.60
2017-09-27T17:39:21.438Z,8.83
2017-09-27T17:41:48.933Z,8.13
2017-09-27T17:44:17.211Z,8.67
2017-09-27T17:46:44.754Z,9.10
2017-09-27T17:49:12.294Z,9.27
2017-09-27T17:51:40.565Z,8.97
2017-09-27T17:54:08.091Z,8.00
2017-09-27T17:56:35.650Z,7.80
2017-09-27T17:59:03.915Z,7.90
2017-09-27T18:01:31.413Z,8.50
2017-09-27T18:03:59.045Z,8.47
2017-09-27T18:06:32.190Z,8.23
2017-09-27T18:12:06.978Z,10.33
2017-09-27T18:14:52.231Z,8.73
2017-09-27T18:17:34.652Z,9.30
2017-09-27T18:20:02.189Z,9.47
2017-09-27T18:22:29.678Z,9.50
2017-09-27T18:24:57.177Z,9.10
2017-09-27T18:27:24.702Z,9.90
2017-09-27T18:29:52.970Z,10.33
2017-09-27T18:32:21.233Z,8.93
2017-09-27T18:34:48.762Z,9.23
2017-09-27T18:37:17.027Z,9.80
2017-09-27T18:39:45.300Z,10.87
2017-09-27T18:42:12.830Z,10.33
2017-09-27T18:44:41.101Z,10.60
2017-09-27T18:47:09.397Z,8.73
2017-09-27T18:49:36.894Z,8.93
2017-09-27T18:52:05.165Z,11.03
2017-09-27T18:54:33.459Z,10.07
2017-09-27T18:57:00.953Z,11.10
2017-09-27T18:59:28.489Z,12.47
2017-09-27T19:01:56.026Z,12.13
2017-09-27T19:04:23.543Z,12.57
2017-09-27T19:06:51.038Z,10.30
2017-09-27T19:09:19.328Z,10.30
2017-09-27T19:11:46.822Z,10.73
2017-09-27T19:14:14.368Z,11.30
2017-09-27T19:16:42.649Z,11.83
2017-09-27T19:19:10.930Z,12.03
2017-09-27T19:21:38.480Z,12.60
2017-09-27T19:24:06.028Z,11.97
2017-09-27T19:26:33.577Z,13.57
2017-09-27T19:29:01.073Z,16.20
2017-09-27T19:31:29.402Z,15.33
2017-09-27T19:33:56.910Z,11.97
2017-09-27T19:36:24.406Z,12.57
2017-09-27T19:38:51.946Z,12.47
2017-09-27T19:41:19.450Z,11.50
2017-09-27T19:43:46.957Z,11.93
2017-09-27T19:46:15.266Z,12.63
2017-09-27T19:48:42.808Z,12.47
2017-09-27T19:51:10.323Z,11.97
2017-09-27T19:53:37.871Z,11.60
2017-09-27T19:56:05.378Z,12.10
2017-09-27T19:58:32.872Z,11.70
2017-09-27T20:01:00.432Z,11.30
2017-09-27T20:03:27.926Z,11.23
2017-09-27T20:05:56.191Z,11.40
2017-09-27T20:08:24.498Z,11.60
2017-09-27T20:10:51.993Z,12.50
2017-09-27T20:13:20.253Z,12.47
2017-09-27T20:15:48.548Z,12.23
2017-09-27T20:18:16.046Z,12.63
2017-09-27T20:20:43.589Z,12.70
2017-09-27T20:23:11.853Z,11.37
2017-09-27T20:25:40.149Z,12.37
2017-09-27T20:28:07.683Z,13.50
2017-09-27T20:30:35.190Z,12.50
2017-09-27T20:33:02.686Z,11.97
2017-09-27T20:35:30.239Z,12.00
2017-09-27T20:37:57.738Z,11.57
2017-09-27T20:40:26.013Z,12.60
2017-09-27T20:42:53.556Z,11.03
2017-09-27T20:45:21.049Z,11.57
2017-09-27T20:47:48.546Z,10.70
2017-09-27T20:50:16.141Z,10.67
2017-09-27T20:52:43.646Z,11.00
2017-09-27T20:55:11.195Z,11.20
2017-09-27T20:57:38.735Z,10.10
2017-09-27T21:00:06.233Z,11.57
2017-09-27T21:02:33.726Z,10.30
2017-09-27T21:05:01.252Z,10.13
2017-09-27T21:07:28.753Z,11.37
2017-09-27T21:09:56.285Z,10.87
2017-09-27T21:12:23.782Z,11.10
2017-09-27T21:14:51.295Z,9.83
2017-09-27T21:17:18.838Z,10.00
2017-09-27T21:19:46.373Z,11.30
2017-09-27T21:22:13.865Z,11.50
2017-09-27T21:24:41.459Z,10.80
2017-09-27T21:27:09.143Z,11.53
2017-09-27T21:29:36.661Z,11.40
2017-09-27T21:32:04.196Z,10.57
2017-09-27T21:34:31.692Z,10.90
2017-09-27T21:36:59.198Z,10.10
2017-09-27T21:39:27.495Z,11.27
2017-09-27T21:41:55.002Z,12.13
2017-09-27T21:44:23.264Z,12.07
2017-09-27T21:46:51.589Z,10.77
2017-09-27T21:49:19.082Z,11.20
2017-09-27T21:51:46.578Z,11.40
2017-09-27T21:54:14.111Z,12.73
2017-09-27T21:56:41.607Z,12.60
2017-09-27T21:59:09.874Z,12.67
2017-09-27T22:01:37.408Z,13.20
2017-09-27T22:04:05.677Z,13.80
2017-09-27T22:06:33.197Z,12.13
2017-09-27T22:09:00.766Z,12.40
2017-09-27T22:11:28.279Z,13.97
2017-09-27T22:13:55.778Z,13.60
2017-09-27T22:16:23.315Z,13.60
2017-09-27T22:18:50.822Z,13.90
2017-09-27T22:21:19.088Z,13.20
2017-09-27T22:23:46.626Z,13.77
2017-09-27T22:26:14.893Z,13.70
2017-09-27T22:28:43.165Z,14.03
2017-09-27T22:31:10.738Z,15.10
2017-09-27T22:33:38.235Z,14.50
2017-09-27T22:36:06.498Z,14.00
2017-09-27T22:38:34.050Z,13.57
2017-09-27T22:41:01.562Z,15.00
2017-09-27T22:43:29.076Z,14.07
2017-09-27T22:45:56.602Z,13.53
2017-09-27T22:48:24.133Z,13.17
2017-09-27T22:50:51.625Z,13.37
2017-09-27T22:53:19.134Z,13.70
2017-09-27T22:55:46.662Z,14.10
2017-09-27T22:58:14.205Z,15.00
2017-09-27T23:00:41.700Z,15.30
2017-09-27T23:03:09.229Z,14.70
2017-09-27T23:05:36.759Z,15.67
2017-09-27T23:08:04.253Z,15.37
2017-09-27T23:10:31.763Z,14.33
2017-09-27T23:12:59.295Z,13.57
2017-09-27T23:15:26.794Z,14.23
2017-09-27T23:17:55.058Z,15.57
2017-09-27T23:20:23.345Z,14.90
2017-09-27T23:22:50.837Z,15.27
2017-09-27T23:25:18.363Z,14.87
2017-09-27T23:27:45.866Z,15.37
2017-09-27T23:30:13.366Z,14.73
2017-09-27T23:32:40.906Z,14.37
2017-09-27T23:35:08.407Z,14.13
2017-09-27T23:37:35.902Z,14.53
2017-09-27T23:40:03.429Z,14.70
2017-09-27T23:42:30.938Z,15.90
2017-09-27T23:44:58.448Z,13.90
2017-09-27T23:47:26.750Z,15.43
2017-09-27T23:49:54.247Z,13.87
2017-09-27T23:52:21.746Z,14.97
2017-09-27T23:54:49.285Z,14.50
2017-09-27T23:57:16.778Z,16.70
2017-09-27T23:59:45.055Z,13.50
